createdAt,value
2023-05-14T00:04:22.772Z,2.70
2023-05-14T00:09:24.996Z,2.38
2023-05-14T00:14:27.361Z,2.30
2023-05-14T00:19:29.686Z,2.05
2023-05-14T00:24:31.846Z,2.60
2023-05-14T00:29:34.103Z,2.08
2023-05-14T00:34:36.829Z,1.60
2023-05-14T00:39:39.112Z,2.58
2023-05-14T00:44:41.230Z,2.10
2023-05-14T00:49:43.570Z,2.70
2023-05-14T00:54:47.069Z,2.80
2023-05-14T00:59:49.484Z,2.63
2023-05-14T01:04:52.182Z,2.63
2023-05-14T01:10:11.420Z,3.17
2023-05-14T01:15:21.411Z,2.42
2023-05-14T01:20:23.898Z,2.85
2023-05-14T01:25:26.689Z,2.58
2023-05-14T01:30:34.416Z,2.47
2023-05-14T01:35:37.186Z,3.45
2023-05-14T01:40:39.754Z,2.58
2023-05-14T01:45:42.701Z,2.67
2023-05-14T01:50:45.020Z,2.00
2023-05-14T01:55:47.180Z,2.30
2023-05-14T02:00:49.470Z,2.70
2023-05-14T02:05:51.694Z,2.25
2023-05-14T02:10:53.874Z,2.53
2023-05-14T02:15:56.066Z,2.10
2023-05-14T02:20:58.266Z,2.00
2023-05-14T02:26:00.466Z,2.38
2023-05-14T02:31:02.705Z,2.67
2023-05-14T02:36:04.973Z,2.65
2023-05-14T02:41:07.724Z,2.58
2023-05-14T02:46:09.974Z,2.45
2023-05-14T02:51:12.339Z,2.45
2023-05-14T02:56:14.561Z,2.95
2023-05-14T03:01:17.129Z,4.93
2023-05-14T03:06:20.041Z,4.55
2023-05-14T03:11:22.512Z,5.93
2023-05-14T03:16:24.801Z,4.18
2023-05-14T03:21:27.630Z,3.35
2023-05-14T03:26:29.783Z,3.83
2023-05-14T03:31:32.000Z,3.55
2023-05-14T03:36:36.674Z,3.47
2023-05-14T03:41:39.530Z,3.33
2023-05-14T03:46:41.691Z,3.30
2023-05-14T03:51:43.866Z,3.05
2023-05-14T03:56:46.457Z,3.17
2023-05-14T04:01:48.753Z,2.42
2023-05-14T04:06:51.108Z,2.42
2023-05-14T04:11:53.291Z,2.42
2023-05-14T04:16:55.515Z,2.28
2023-05-14T04:21:57.698Z,2.78
2023-05-14T04:27:00.296Z,2.03
2023-05-14T04:32:02.450Z,2.05
2023-05-14T04:37:04.628Z,1.95
2023-05-14T04:42:07.145Z,1.85
2023-05-14T04:47:09.370Z,2.08
2023-05-14T04:52:11.810Z,1.55
2023-05-14T04:57:13.941Z,1.70
2023-05-14T05:02:16.196Z,2.08
2023-05-14T05:07:18.330Z,1.83
2023-05-14T05:12:21.739Z,1.95
2023-05-14T05:17:24.439Z,1.50
2023-05-14T05:22:26.681Z,1.80
2023-05-14T05:27:28.984Z,1.48
2023-05-14T05:32:31.418Z,1.60
2023-05-14T05:37:33.564Z,1.73
2023-05-14T05:42:35.839Z,1.90
2023-05-14T05:47:38.022Z,1.50
2023-05-14T05:52:40.276Z,1.70
2023-05-14T05:57:42.389Z,1.83
2023-05-14T06:02:45.053Z,1.20
2023-05-14T06:07:47.466Z,1.50
2023-05-14T06:12:52.272Z,1.30
2023-05-14T06:17:54.572Z,1.30
2023-05-14T06:22:56.771Z,1.30
2023-05-14T06:27:58.864Z,1.38
2023-05-14T06:33:01.045Z,1.10
2023-05-14T06:38:03.263Z,1.52
2023-05-14T06:43:06.983Z,1.30
2023-05-14T06:48:10.556Z,1.02
2023-05-14T06:53:12.942Z,1.15
2023-05-14T06:58:15.217Z,1.08
2023-05-14T07:03:17.464Z,1.23
2023-05-14T07:08:19.697Z,1.23
2023-05-14T07:13:22.230Z,0.85
2023-05-14T07:18:24.550Z,1.50
2023-05-14T07:23:26.726Z,1.38
2023-05-14T07:28:28.914Z,1.42
2023-05-14T07:33:31.236Z,1.33
2023-05-14T07:38:33.865Z,1.30
2023-05-14T07:43:35.958Z,1.27
2023-05-14T07:48:38.301Z,0.98
2023-05-14T07:53:40.734Z,1.13
2023-05-14T07:58:42.943Z,1.35
2023-05-14T08:03:45.335Z,1.33
2023-05-14T08:08:49.065Z,1.30
2023-05-14T08:13:51.200Z,1.20
2023-05-14T08:18:53.423Z,1.55
2023-05-14T08:23:55.684Z,1.20
2023-05-14T08:28:57.764Z,1.15
2023-05-14T08:33:59.858Z,1.17
2023-05-14T08:39:01.959Z,1.10
2023-05-14T08:44:11.139Z,1.00
2023-05-14T08:49:22.187Z,1.50
2023-05-14T08:54:25.547Z,1.35
2023-05-14T08:59:27.700Z,1.17
2023-05-14T09:04:30.421Z,1.05
2023-05-14T09:09:32.833Z,1.30
2023-05-14T09:14:34.997Z,1.27
2023-05-14T09:19:39.403Z,1.48
2023-05-14T09:24:42.124Z,1.15
2023-05-14T09:29:44.248Z,1.63
2023-05-14T09:34:46.381Z,1.00
2023-05-14T09:39:48.431Z,1.10
2023-05-14T09:44:53.671Z,1.15
2023-05-14T09:49:55.774Z,0.90
2023-05-14T09:54:58.121Z,1.23
2023-05-14T10:00:00.392Z,1.20
2023-05-14T10:05:04.236Z,0.93
2023-05-14T10:10:08.030Z,1.00
2023-05-14T10:15:15.194Z,1.65
2023-05-14T10:20:18.026Z,0.93
2023-05-14T10:25:20.205Z,1.13
2023-05-14T10:30:25.811Z,1.38
2023-05-14T10:35:28.149Z,1.50
2023-05-14T10:40:30.349Z,1.20
2023-05-14T10:45:34.628Z,1.67
2023-05-14T10:50:37.025Z,1.25
2023-05-14T10:55:39.404Z,1.38
2023-05-14T11:00:41.532Z,1.00
2023-05-14T11:05:44.408Z,1.33
2023-05-14T11:10:47.370Z,1.08
2023-05-14T11:15:49.762Z,1.30
2023-05-14T11:20:52.893Z,1.00
2023-05-14T11:25:55.670Z,1.25
2023-05-14T11:30:57.929Z,1.45
2023-05-14T11:36:00.107Z,1.25
2023-05-14T11:41:04.658Z,1.35
2023-05-14T11:46:07.244Z,0.93
2023-05-14T11:51:09.430Z,0.70
2023-05-14T11:56:11.635Z,1.25
2023-05-14T12:01:13.923Z,0.93
2023-05-14T12:06:16.223Z,0.95
2023-05-14T12:11:21.558Z,1.20
2023-05-14T12:16:23.781Z,0.90
2023-05-14T12:21:27.038Z,1.33
2023-05-14T12:26:32.699Z,1.02
2023-05-14T12:31:35.167Z,1.30
2023-05-14T12:36:37.282Z,1.45
2023-05-14T12:41:39.562Z,1.48
2023-05-14T12:46:41.863Z,1.40
2023-05-14T12:51:44.318Z,1.13
2023-05-14T12:56:46.423Z,1.80
2023-05-14T13:01:48.555Z,2.63
2023-05-14T13:06:50.815Z,1.75
2023-05-14T13:11:52.975Z,1.92
2023-05-14T13:16:55.147Z,1.77
2023-05-14T13:21:57.314Z,1.08
2023-05-14T13:26:59.446Z,1.48
2023-05-14T13:32:01.954Z,1.77
2023-05-14T13:37:04.330Z,1.65
2023-05-14T13:42:06.569Z,2.00
2023-05-14T13:47:08.907Z,1.92
2023-05-14T13:52:12.289Z,1.77
2023-05-14T13:57:14.815Z,1.65
2023-05-14T14:02:17.083Z,2.40
2023-05-14T14:07:19.226Z,2.03
2023-05-14T14:12:21.513Z,1.40
2023-05-14T14:17:23.723Z,1.30
2023-05-14T14:22:27.343Z,1.98
2023-05-14T14:27:32.468Z,1.20
2023-05-14T14:32:34.646Z,1.48
2023-05-14T14:37:37.379Z,1.48
2023-05-14T14:42:39.440Z,1.77
2023-05-14T14:47:46.184Z,2.28
2023-05-14T14:52:48.285Z,2.13
2023-05-14T14:57:50.647Z,2.45
2023-05-14T15:02:52.974Z,3.50
2023-05-14T15:07:55.147Z,3.05
2023-05-14T15:12:58.426Z,3.60
2023-05-14T15:18:00.852Z,3.88
2023-05-14T15:23:03.470Z,3.17
2023-05-14T15:28:06.353Z,2.80
2023-05-14T15:33:08.972Z,2.78
2023-05-14T15:38:11.382Z,2.90
2023-05-14T15:43:13.594Z,5.15
2023-05-14T15:48:15.734Z,7.05
2023-05-14T15:53:18.069Z,8.25
2023-05-14T15:58:20.152Z,8.68
2023-05-14T16:03:22.420Z,8.70
2023-05-14T16:08:24.658Z,8.80
2023-05-14T16:13:26.829Z,7.88
2023-05-14T16:18:29.139Z,6.13
2023-05-14T16:23:31.257Z,6.47
2023-05-14T16:28:33.533Z,7.18
2023-05-14T16:33:36.158Z,7.88
2023-05-14T16:38:44.559Z,10.90
2023-05-14T16:43:51.478Z,8.25
2023-05-14T16:48:53.561Z,8.57
2023-05-14T16:53:55.908Z,10.02
2023-05-14T16:58:58.135Z,9.60
2023-05-14T17:04:00.288Z,7.85
2023-05-14T17:09:02.583Z,4.80
2023-05-14T17:14:04.727Z,4.85
2023-05-14T17:19:07.352Z,4.35
2023-05-14T17:24:09.685Z,5.18
2023-05-14T17:29:11.771Z,4.03
2023-05-14T17:34:13.923Z,4.95
2023-05-14T17:39:16.310Z,4.85
2023-05-14T17:44:18.634Z,5.30
2023-05-14T17:49:20.771Z,5.22
2023-05-14T17:54:22.978Z,6.18
2023-05-14T17:59:25.164Z,6.50
2023-05-14T18:04:27.250Z,5.47
2023-05-14T18:09:29.407Z,4.97
2023-05-14T18:14:32.098Z,4.85
2023-05-14T18:19:34.218Z,5.68
2023-05-14T18:24:36.290Z,5.75
2023-05-14T18:29:38.552Z,6.05
2023-05-14T18:34:40.751Z,6.90
2023-05-14T18:39:42.963Z,6.63
2023-05-14T18:44:45.275Z,7.20
2023-05-14T18:49:47.456Z,6.63
2023-05-14T18:54:50.861Z,5.97
2023-05-14T18:59:53.117Z,12.55
2023-05-14T19:04:55.279Z,9.02
2023-05-14T19:09:57.375Z,6.70
2023-05-14T19:14:59.462Z,5.50
2023-05-14T19:20:01.570Z,7.20
2023-05-14T19:25:07.779Z,6.18
2023-05-14T19:30:11.263Z,5.72
2023-05-14T19:35:13.509Z,5.95
2023-05-14T19:40:15.675Z,6.38
2023-05-14T19:45:17.788Z,6.78
2023-05-14T19:50:19.916Z,7.85
2023-05-14T19:55:22.049Z,8.32
2023-05-14T20:00:24.380Z,7.93
2023-05-14T20:05:27.151Z,11.32
2023-05-14T20:10:30.776Z,10.70
2023-05-14T20:15:32.858Z,12.02
2023-05-14T20:20:35.101Z,12.98
2023-05-14T20:25:37.244Z,10.57
2023-05-14T20:30:40.429Z,11.60
2023-05-14T20:35:44.249Z,12.35
2023-05-14T20:40:46.405Z,12.40
2023-05-14T20:45:48.521Z,15.07
2023-05-14T20:50:50.693Z,13.90
2023-05-14T20:55:52.812Z,13.70
2023-05-14T21:00:55.031Z,13.93
2023-05-14T21:05:57.151Z,14.05
2023-05-14T21:10:59.368Z,12.18
2023-05-14T21:16:01.593Z,14.40
2023-05-14T21:21:03.992Z,13.88
2023-05-14T21:26:06.160Z,10.45
2023-05-14T21:31:08.315Z,11.23
2023-05-14T21:36:10.595Z,10.27
2023-05-14T21:41:12.758Z,11.25
2023-05-14T21:46:14.925Z,9.88
2023-05-14T21:51:17.209Z,12.05
2023-05-14T21:56:19.370Z,10.70
2023-05-14T22:01:21.530Z,10.98
2023-05-14T22:06:23.726Z,10.50
2023-05-14T22:11:25.939Z,8.60
2023-05-14T22:16:28.094Z,8.98
2023-05-14T22:21:30.207Z,7.05
2023-05-14T22:26:32.277Z,7.30
2023-05-14T22:31:34.462Z,6.38
2023-05-14T22:36:36.740Z,5.43
2023-05-14T22:41:38.793Z,3.63
2023-05-14T22:46:41.101Z,3.60
2023-05-14T22:51:43.208Z,3.25
2023-05-14T22:56:45.321Z,4.25
2023-05-14T23:01:47.455Z,3.47
2023-05-14T23:06:49.705Z,2.70
2023-05-14T23:11:52.369Z,3.17
2023-05-14T23:16:54.520Z,3.60
2023-05-14T23:21:56.707Z,3.45
2023-05-14T23:26:58.816Z,3.97
2023-05-14T23:32:00.968Z,4.32
2023-05-14T23:37:03.038Z,4.63
2023-05-14T23:42:05.170Z,4.35
2023-05-14T23:47:08.950Z,3.78
2023-05-14T23:52:11.576Z,3.85
2023-05-14T23:57:14.723Z,5.90
